createdAt,value
2018-09-01T00:01:01.708Z,11.14
2018-09-01T00:07:06.717Z,11.10
2018-09-01T00:13:12.206Z,10.92
2018-09-01T00:19:17.005Z,10.80
2018-09-01T00:25:21.726Z,10.93
2018-09-01T00:31:26.391Z,10.87
2018-09-01T00:37:36.633Z,10.76
2018-09-01T00:43:42.125Z,10.49
2018-09-01T00:49:47.606Z,10.69
2018-09-01T00:55:52.298Z,10.54
2018-09-01T01:01:57.038Z,10.52
2018-09-01T01:08:02.202Z,10.51
2018-09-01T01:14:06.867Z,10.41
2018-09-01T01:20:12.280Z,10.43
2018-09-01T01:26:17.261Z,10.51
2018-09-01T01:32:22.118Z,10.53
2018-09-01T01:38:26.860Z,10.44
2018-09-01T01:44:32.045Z,10.26
2018-09-01T01:50:36.853Z,10.18
2018-09-01T01:56:42.447Z,10.13
2018-09-01T02:02:47.806Z,10.29
2018-09-01T02:08:52.628Z,10.04
2018-09-01T02:14:57.500Z,10.14
2018-09-01T02:21:02.257Z,10.02
2018-09-01T02:27:07.485Z,10.03
2018-09-01T02:33:13.596Z,9.94
2018-09-01T02:39:18.319Z,9.99
2018-09-01T02:45:23.130Z,9.81
2018-09-01T02:51:27.833Z,9.93
2018-09-01T02:57:32.664Z,10.09
2018-09-01T03:03:37.440Z,9.99
2018-09-01T03:09:42.242Z,9.85
2018-09-01T03:15:47.448Z,9.56
2018-09-01T03:21:53.368Z,9.54
2018-09-01T03:27:58.225Z,9.39
2018-09-01T03:34:03.282Z,9.48
2018-09-01T03:40:08.701Z,9.18
2018-09-01T03:46:14.303Z,9.19
2018-09-01T03:52:19.116Z,9.06
2018-09-01T03:58:25.388Z,9.30
2018-09-01T04:04:30.362Z,9.01
2018-09-01T04:10:35.212Z,9.08
2018-09-01T04:16:41.931Z,9.08
2018-09-01T04:22:46.943Z,9.23
2018-09-01T04:28:51.639Z,8.96
2018-09-01T04:34:56.755Z,8.99
2018-09-01T04:41:01.647Z,8.88
2018-09-01T04:47:06.506Z,9.01
2018-09-01T04:53:12.088Z,8.85
2018-09-01T04:59:17.295Z,9.08
2018-09-01T05:05:22.034Z,8.87
2018-09-01T05:11:27.168Z,8.92
2018-09-01T05:17:32.335Z,9.16
2018-09-01T05:23:37.110Z,9.22
2018-09-01T05:29:43.030Z,9.20
2018-09-01T05:35:48.301Z,9.37
2018-09-01T05:41:53.111Z,9.69
2018-09-01T05:47:57.884Z,9.71
2018-09-01T05:54:03.069Z,10.13
2018-09-01T06:00:09.769Z,10.29
2018-09-01T06:06:14.793Z,10.40
2018-09-01T06:12:19.686Z,10.63
2018-09-01T06:18:24.492Z,10.91
2018-09-01T06:24:29.282Z,11.10
2018-09-01T06:30:36.260Z,11.59
2018-09-01T06:36:42.313Z,12.07
2018-09-01T06:42:47.626Z,12.58
2018-09-01T06:48:52.665Z,14.45
2018-09-01T06:54:57.410Z,20.58
2018-09-01T07:01:02.209Z,23.54
2018-09-01T07:07:06.933Z,24.98
2018-09-01T07:13:13.479Z,22.91
2018-09-01T07:19:18.396Z,20.35
2018-09-01T07:25:23.316Z,18.71
2018-09-01T07:31:28.725Z,17.47
2018-09-01T07:37:34.037Z,17.20
2018-09-01T07:43:39.118Z,17.30
2018-09-01T07:49:44.520Z,16.89
2018-09-01T07:55:49.806Z,16.72
2018-09-01T08:01:54.552Z,16.64
2018-09-01T08:07:59.569Z,16.87
2018-09-01T08:14:04.539Z,17.60
2018-09-01T08:20:10.561Z,18.02
2018-09-01T08:26:16.476Z,18.05
2018-09-01T08:32:22.037Z,18.12
2018-09-01T08:38:27.056Z,18.84
2018-09-01T08:44:31.726Z,19.56
2018-09-01T08:50:36.581Z,19.47
2018-09-01T08:56:42.753Z,19.45
2018-09-01T09:02:47.801Z,20.57
2018-09-01T09:08:52.670Z,21.50
2018-09-01T09:14:57.445Z,22.19
2018-09-01T09:21:02.703Z,22.63
2018-09-01T09:27:09.387Z,22.71
2018-09-01T09:33:14.854Z,22.21
2018-09-01T09:39:19.565Z,22.16
2018-09-01T09:45:24.837Z,21.70
2018-09-01T09:51:29.812Z,22.48
2018-09-01T09:57:34.825Z,24.55
2018-09-01T10:03:40.709Z,26.27
2018-09-01T10:09:46.038Z,27.53
2018-09-01T10:15:50.813Z,25.87
2018-09-01T10:21:56.178Z,27.45
2018-09-01T10:28:00.953Z,29.41
2018-09-01T10:34:06.145Z,29.91
2018-09-01T10:40:12.082Z,30.49
2018-09-01T10:46:17.458Z,31.80
2018-09-01T10:52:22.243Z,33.53
2018-09-01T10:58:27.019Z,32.70
2018-09-01T11:04:32.181Z,33.48
2018-09-01T11:10:37.102Z,33.62
2018-09-01T11:16:43.122Z,32.00
2018-09-01T11:22:48.101Z,28.32
2018-09-01T11:28:52.953Z,29.69
2018-09-01T11:34:57.936Z,31.64
2018-09-01T11:41:02.850Z,33.27
2018-09-01T11:47:07.687Z,34.21
2018-09-01T11:53:12.874Z,33.08
2018-09-01T11:59:17.920Z,32.80
2018-09-01T12:05:23.014Z,32.86
2018-09-01T12:11:27.798Z,34.60
2018-09-01T12:17:32.468Z,33.64
2018-09-01T12:23:37.441Z,33.82
2018-09-01T12:29:42.590Z,34.11
2018-09-01T12:35:47.351Z,34.29
2018-09-01T12:41:52.412Z,34.72
2018-09-01T12:47:57.113Z,35.15
2018-09-01T12:54:02.050Z,35.54
2018-09-01T13:00:07.705Z,34.88
2018-09-01T13:06:13.982Z,35.21
2018-09-01T13:12:19.038Z,34.27
2018-09-01T13:18:24.019Z,33.19
2018-09-01T13:24:29.081Z,33.75
2018-09-01T13:30:34.220Z,30.97
2018-09-01T13:36:39.060Z,33.06
2018-09-01T13:42:44.280Z,30.57
2018-09-01T13:48:49.286Z,29.80
2018-09-01T13:54:54.952Z,31.33
2018-09-01T14:00:59.892Z,33.01
2018-09-01T14:07:04.909Z,33.75
2018-09-01T14:13:11.549Z,34.05
2018-09-01T14:19:16.934Z,35.51
2018-09-01T14:25:21.864Z,31.60
2018-09-01T14:31:26.726Z,32.91
2018-09-01T14:37:31.896Z,33.28
2018-09-01T14:43:36.634Z,32.79
2018-09-01T14:49:44.064Z,33.02
2018-09-01T14:55:48.859Z,34.52
2018-09-01T15:01:53.866Z,30.24
2018-09-01T15:07:58.737Z,27.86
2018-09-01T15:14:04.028Z,26.30
2018-09-01T15:20:09.645Z,30.35
2018-09-01T15:26:14.924Z,32.74
2018-09-01T15:32:19.852Z,33.90
2018-09-01T15:38:24.566Z,34.68
2018-09-01T15:44:29.397Z,31.94
2018-09-01T15:50:34.265Z,29.44
2018-09-01T15:56:39.348Z,27.80
2018-09-01T16:02:44.419Z,30.15
2018-09-01T16:08:49.175Z,27.16
2018-09-01T16:14:54.044Z,25.86
2018-09-01T16:20:58.799Z,27.54
2018-09-01T16:27:03.645Z,29.74
2018-09-01T16:33:09.077Z,30.96
2018-09-01T16:39:14.693Z,32.50
2018-09-01T16:45:19.919Z,33.13
2018-09-01T16:51:24.951Z,33.83
2018-09-01T16:57:29.797Z,31.89
2018-09-01T17:03:34.539Z,30.55
2018-09-01T17:09:39.597Z,29.59
2018-09-01T17:15:45.308Z,28.67
2018-09-01T17:21:50.220Z,29.01
2018-09-01T17:27:55.423Z,28.61
2018-09-01T17:34:00.141Z,27.74
2018-09-01T17:40:05.129Z,26.76
2018-09-01T17:46:09.884Z,25.71
2018-09-01T17:52:15.375Z,24.78
2018-09-01T17:58:20.319Z,23.32
2018-09-01T18:04:25.312Z,22.21
2018-09-01T18:10:30.111Z,20.93
2018-09-01T18:16:34.840Z,20.14
2018-09-01T18:22:39.854Z,19.54
2018-09-01T18:37:10.499Z,18.68
2018-09-01T18:43:16.791Z,18.25
2018-09-01T18:49:21.954Z,18.05
2018-09-01T18:55:26.874Z,17.67
2018-09-01T19:01:32.051Z,17.79
2018-09-01T19:07:37.063Z,17.46
2018-09-01T19:13:43.625Z,17.38
2018-09-01T19:19:48.560Z,17.25
2018-09-01T19:25:53.351Z,17.21
2018-09-01T19:31:58.157Z,17.14
2018-09-01T19:38:03.027Z,17.06
2018-09-01T19:44:07.812Z,16.90
2018-09-01T19:50:13.272Z,16.74
2018-09-01T19:56:18.608Z,16.99
2018-09-01T20:02:23.576Z,17.16
2018-09-01T20:08:28.428Z,17.30
2018-09-01T20:14:33.513Z,17.36
2018-09-01T20:20:39.542Z,17.04
2018-09-01T20:26:44.709Z,16.87
2018-09-01T20:32:49.931Z,16.80
2018-09-01T20:38:54.714Z,16.60
2018-09-01T20:44:59.593Z,16.40
2018-09-01T20:51:04.515Z,16.41
2018-09-01T20:57:10.588Z,16.44
2018-09-01T21:03:17.052Z,16.61
2018-09-01T21:09:22.377Z,16.94
2018-09-01T21:15:27.445Z,16.91
2018-09-01T21:21:32.490Z,16.93
2018-09-01T21:27:37.730Z,16.88
2018-09-01T21:33:43.738Z,16.62
2018-09-01T21:39:48.784Z,16.46
2018-09-01T21:45:53.765Z,16.63
2018-09-01T21:51:59.403Z,16.56
2018-09-01T21:58:04.261Z,16.46
2018-09-01T22:04:10.146Z,16.38
2018-09-01T22:10:16.016Z,16.24
2018-09-01T22:16:20.814Z,16.31
2018-09-01T22:22:25.599Z,16.06
2018-09-01T22:28:30.987Z,15.95
2018-09-01T22:34:36.040Z,15.69
2018-09-01T22:40:42.607Z,15.62
2018-09-01T22:46:55.304Z,15.64
2018-09-01T22:52:59.996Z,15.59
2018-09-01T22:59:04.830Z,15.56
2018-09-01T23:05:11.036Z,15.44
2018-09-01T23:11:16.606Z,15.45
2018-09-01T23:17:21.468Z,15.41
2018-09-01T23:23:26.768Z,15.51
2018-09-01T23:29:31.719Z,15.55
2018-09-01T23:35:36.734Z,15.69
2018-09-01T23:41:42.034Z,15.85
2018-09-01T23:47:47.966Z,15.95
2018-09-01T23:53:53.109Z,15.99
2018-09-01T23:59:57.859Z,15.94
